Time;durP1;ratioP1;P1;durP2;ratioP2;P2;SDS_P1;SDS_P2;PMS_P1;PMS_P2;Temp;Humidity;BMP_temperature;BMP_pressure;BME280_temperature;BME280_humidity;BME280_pressure;Samples;Min_cycle;Max_cycle;Signal;HPM_P1;HPM_P2
2021/04/01 00:00:39;;;;;;;56.70;38.50;;;;;;;7.67;86.47;100440.95;1756859;81;21400;-70
2021/04/01 00:03:08;;;;;;;52.35;38.83;;;;;;;7.66;86.65;100439.70;1756832;81;21065;-71
2021/04/01 00:05:38;;;;;;;61.50;40.63;;;;;;;7.66;86.91;100434.52;1756883;81;20954;-71
2021/04/01 00:08:07;;;;;;;58.48;39.63;;;;;;;7.67;87.15;100431.03;1756825;81;21060;-70
2021/04/01 00:10:42;;;;;;;62.45;41.28;;;;;;;7.67;87.29;100425.84;1756863;81;20934;-70
2021/04/01 00:13:10;;;;;;;59.33;40.43;;;;;;;7.67;87.52;100428.44;1756973;81;22022;-69
2021/04/01 00:15:40;;;;;;;58.98;39.73;;;;;;;7.68;87.79;100416.72;1756871;81;21025;-70
2021/04/01 00:18:13;;;;;;;57.08;40.23;;;;;;;7.68;87.86;100415.42;1726191;81;21026;-69
2021/04/01 00:20:42;;;;;;;53.75;38.42;;;;;;;7.69;88.08;100418.86;1756803;81;20945;-69
2021/04/01 00:23:10;;;;;;;54.03;37.90;;;;;;;7.69;88.37;100408.49;1756845;81;21045;-70
2021/04/01 00:25:39;;;;;;;54.93;39.48;;;;;;;7.71;88.79;100401.50;1756855;81;21201;-72
2021/04/01 00:28:07;;;;;;;55.30;39.33;;;;;;;7.73;88.92;100399.70;1756760;81;21032;-70
2021/04/01 00:30:36;;;;;;;54.53;36.70;;;;;;;7.74;89.23;100401.84;1756758;80;20930;-70
2021/04/01 00:33:05;;;;;;;52.65;37.48;;;;;;;7.76;89.32;100391.80;1756712;81;21029;-70
2021/04/01 00:35:34;;;;;;;52.33;37.23;;;;;;;7.77;89.38;100392.65;1756836;81;20946;-70
2021/04/01 00:38:04;;;;;;;51.23;37.78;;;;;;;7.77;89.56;100391.35;1756858;81;20942;-70
2021/04/01 00:40:34;;;;;;;55.92;37.95;;;;;;;7.77;89.62;100388.77;1756800;81;21253;-70
2021/04/01 00:43:02;;;;;;;53.23;38.80;;;;;;;7.76;89.86;100394.40;1756815;81;20953;-70
2021/04/01 00:45:30;;;;;;;50.65;37.10;;;;;;;7.77;90.11;100393.50;1756771;81;20997;-70
2021/04/01 00:47:59;;;;;;;50.25;36.00;;;;;;;7.80;90.28;100386.05;1756842;81;21021;-70
2021/04/01 00:50:30;;;;;;;48.65;36.58;;;;;;;7.84;90.49;100390.22;1724634;81;21325;-70
2021/04/01 00:52:58;;;;;;;51.75;37.85;;;;;;;7.87;90.67;100391.39;1756776;81;21081;-73
2021/04/01 00:55:28;;;;;;;53.13;37.85;;;;;;;7.90;90.76;100389.98;1748947;81;20998;-73
2021/04/01 00:57:58;;;;;;;48.92;32.88;;;;;;;7.93;90.71;100388.56;1750729;81;21148;-73
2021/04/01 01:00:31;;;;;;;51.83;37.23;;;;;;;7.93;90.73;100380.33;1711423;81;21025;-72
2021/04/01 01:02:59;;;;;;;49.15;35.85;;;;;;;7.93;90.64;100380.78;1750703;81;22063;-73
2021/04/01 01:05:30;;;;;;;52.40;36.77;;;;;;;7.93;90.63;100376.45;1748934;81;21015;-72
2021/04/01 01:07:58;;;;;;;54.48;38.23;;;;;;;7.93;90.63;100369.12;1750601;81;20990;-71
2021/04/01 01:10:30;;;;;;;52.17;37.80;;;;;;;7.92;90.52;100370.02;1751458;81;21045;-70
2021/04/01 01:13:00;;;;;;;51.80;36.88;;;;;;;7.89;90.45;100369.69;1748383;81;21143;-72
2021/04/01 01:15:30;;;;;;;47.53;36.28;;;;;;;7.87;90.48;100363.72;1743524;81;21020;-70
2021/04/01 01:17:59;;;;;;;50.83;37.23;;;;;;;7.85;90.50;100359.05;1747053;81;21547;-73
2021/04/01 01:20:27;;;;;;;49.38;35.73;;;;;;;7.82;90.43;100368.23;1747528;81;21025;-71
2021/04/01 01:23:06;;;;;;;47.53;36.45;;;;;;;7.80;90.49;100361.42;1747282;81;20966;-72
2021/04/01 01:25:36;;;;;;;51.55;37.23;;;;;;;7.76;90.57;100361.15;1748339;81;20942;-72
2021/04/01 01:28:06;;;;;;;49.23;36.05;;;;;;;7.71;90.36;100360.03;1751102;81;21153;-71
2021/04/01 01:30:34;;;;;;;55.30;38.50;;;;;;;7.64;90.26;100355.98;1745108;80;21619;-70
2021/04/01 01:33:06;;;;;;;54.25;38.65;;;;;;;7.59;90.33;100354.05;1747296;81;21567;-70
2021/04/01 01:35:36;;;;;;;55.80;37.65;;;;;;;7.53;90.48;100349.10;1745516;81;21622;-70
2021/04/01 01:38:08;;;;;;;58.42;40.78;;;;;;;7.50;90.78;100355.70;1753035;80;20974;-70
2021/04/01 01:40:37;;;;;;;61.40;42.08;;;;;;;7.47;90.93;100350.18;1740268;82;21204;-70
2021/04/01 01:43:13;;;;;;;55.03;38.88;;;;;;;7.45;91.01;100349.39;1748351;81;21080;-70
2021/04/01 01:45:42;;;;;;;48.25;36.83;;;;;;;7.44;91.13;100350.74;1751522;81;21373;-70
2021/04/01 01:48:11;;;;;;;48.60;35.95;;;;;;;7.41;91.26;100346.97;1750441;81;21575;-72
2021/04/01 01:50:40;;;;;;;54.50;37.63;;;;;;;7.38;91.50;100347.93;1745571;81;21010;-72
2021/04/01 01:53:09;;;;;;;52.50;37.88;;;;;;;7.38;91.56;100340.61;1744292;81;22095;-71
2021/04/01 01:55:39;;;;;;;54.93;37.30;;;;;;;7.38;91.71;100340.61;1749042;81;21073;-73
2021/04/01 01:58:08;;;;;;;51.92;36.88;;;;;;;7.39;91.99;100336.66;1732404;82;21014;-70
2021/04/01 02:00:49;;;;;;;50.35;37.83;;;;;;;7.41;92.19;100332.72;1747699;81;20935;-71
2021/04/01 02:03:18;;;;;;;55.15;39.30;;;;;;;7.43;92.37;100332.22;1697825;84;21642;-70
2021/04/01 02:05:47;;;;;;;49.42;36.60;;;;;;;7.45;92.45;100331.70;1725283;83;22205;-71
2021/04/01 02:08:15;;;;;;;50.28;36.80;;;;;;;7.46;92.57;100328.21;1726829;82;20966;-70
2021/04/01 02:10:46;;;;;;;53.35;38.42;;;;;;;7.46;92.58;100322.58;1747233;81;21635;-70
2021/04/01 02:13:18;;;;;;;51.37;37.20;;;;;;;7.48;92.47;100325.11;1746321;81;21040;-70
2021/04/01 02:15:50;;;;;;;53.25;37.00;;;;;;;7.48;92.28;100327.70;1751944;80;21033;-72
2021/04/01 02:18:23;;;;;;;49.38;36.03;;;;;;;7.46;92.30;100325.63;1749972;81;21300;-72
2021/04/01 02:20:53;;;;;;;52.60;36.73;;;;;;;7.45;92.43;100324.78;1713899;83;21038;-70
2021/04/01 02:23:24;;;;;;;49.05;36.90;;;;;;;7.43;92.36;100318.81;1725074;83;21322;-70
2021/04/01 02:25:55;;;;;;;50.90;37.70;;;;;;;7.42;92.49;100320.16;1721758;83;21511;-71
2021/04/01 02:28:25;;;;;;;53.00;38.45;;;;;;;7.39;92.63;100309.92;1755774;81;20965;-72
2021/04/01 02:30:57;;;;;;;53.65;38.23;;;;;;;7.38;92.79;100314.70;1760772;79;21207;-72
2021/04/01 02:33:29;;;;;;;50.75;35.52;;;;;;;7.38;92.85;100313.41;1765368;80;20986;-71
2021/04/01 02:35:58;;;;;;;48.58;36.48;;;;;;;7.35;92.93;100310.48;1778362;79;21029;-70
2021/04/01 02:38:27;;;;;;;49.98;35.25;;;;;;;7.34;93.08;100313.52;1775231;79;21013;-70
2021/04/01 02:40:57;;;;;;;47.70;35.38;;;;;;;7.33;93.27;100304.52;1777927;79;21003;-70
2021/04/01 02:43:32;;;;;;;52.85;37.25;;;;;;;7.32;93.51;100306.72;1760230;81;21311;-70
2021/04/01 02:46:00;;;;;;;47.67;35.58;;;;;;;7.30;93.66;100305.48;1758701;81;21002;-70
2021/04/01 02:48:29;;;;;;;51.88;37.23;;;;;;;7.30;93.75;100302.89;1793450;79;20942;-70
2021/04/01 02:50:57;;;;;;;68.80;43.73;;;;;;;7.30;93.75;100311.11;1788608;79;21005;-69
2021/04/01 02:53:25;;;;;;;69.12;44.35;;;;;;;7.28;93.61;100308.58;1788442;79;21032;-70
2021/04/01 02:55:56;;;;;;;71.28;46.65;;;;;;;7.24;93.38;100303.11;1787890;79;21652;-70
2021/04/01 02:58:24;;;;;;;82.75;49.93;;;;;;;7.22;93.36;100306.22;1782927;80;21061;-69
2021/04/01 03:00:53;;;;;;;83.22;50.58;;;;;;;7.19;93.49;100303.77;1788502;79;20927;-69
2021/04/01 03:03:25;;;;;;;138.75;112.50;;;;;;;7.17;93.55;100304.28;1783496;80;20981;-70
2021/04/01 03:05:51;;;;;;;107.65;95.77;;;;;;;7.14;93.62;100300.51;1783782;80;20978;-70
2021/04/01 03:08:20;;;;;;;81.10;69.60;;;;;;;7.12;93.71;100294.99;1784525;80;20985;-70
2021/04/01 03:10:50;;;;;;;77.65;57.17;;;;;;;7.10;93.88;100294.20;1784460;79;21563;-70
2021/04/01 03:13:19;;;;;;;58.87;45.50;;;;;;;7.09;94.00;100293.81;1784413;80;20982;-70
2021/04/01 03:15:50;;;;;;;54.05;41.80;;;;;;;7.08;94.07;100298.14;1784472;80;20993;-71
2021/04/01 03:18:20;;;;;;;50.95;37.48;;;;;;;7.06;94.09;100294.77;1784573;80;21460;-70
2021/04/01 03:20:49;;;;;;;55.67;39.53;;;;;;;7.05;94.28;100287.90;1784503;80;21194;-71
2021/04/01 03:23:18;;;;;;;52.00;37.13;;;;;;;7.05;94.28;100289.20;1784417;80;21575;-70
2021/04/01 03:25:46;;;;;;;55.12;39.60;;;;;;;7.05;94.34;100289.64;1784459;80;21045;-70
2021/04/01 03:28:16;;;;;;;52.75;37.65;;;;;;;7.02;94.45;100294.03;1784125;80;21013;-69
2021/04/01 03:31:00;;;;;;;54.60;39.25;;;;;;;7.02;94.51;100292.74;1788484;78;21509;-69
2021/04/01 03:33:21;;;;;;;51.73;35.73;;;;;;;7.01;94.54;100289.76;1768267;79;21267;-69
2021/04/01 03:35:49;;;;;;;53.75;37.93;;;;;;;7.01;94.53;100294.09;1766158;81;21006;-69
2021/04/01 03:38:18;;;;;;;47.73;35.33;;;;;;;7.00;94.55;100289.36;1790353;80;21052;-69
2021/04/01 03:40:48;;;;;;;51.95;35.05;;;;;;;6.99;94.59;100284.24;1790365;80;21072;-69
2021/04/01 03:43:16;;;;;;;49.40;37.58;;;;;;;6.99;94.61;100287.67;1790530;80;20953;-68
2021/04/01 03:45:45;;;;;;;50.78;36.03;;;;;;;6.99;94.63;100286.38;1801216;78;21765;-69
2021/04/01 03:48:14;;;;;;;54.73;36.13;;;;;;;7.01;94.79;100292.80;1822776;78;20942;-68
2021/04/01 03:50:42;;;;;;;48.40;36.63;;;;;;;7.02;94.76;100286.72;1822736;78;20933;-69
2021/04/01 03:53:11;;;;;;;48.05;35.30;;;;;;;7.02;94.78;100292.74;1822687;78;21120;-68
2021/04/01 03:55:41;;;;;;;48.08;34.08;;;;;;;7.04;94.72;100288.80;1822761;78;20945;-69
2021/04/01 03:58:31;;;;;;;48.73;35.83;;;;;;;7.06;94.72;100292.17;1822785;78;21230;-72
2021/04/01 04:06:33;;;;;;;47.20;35.15;;;;;;;7.14;94.72;100291.45;1789937;80;21077;-69
2021/04/01 04:16:25;;;;;;;47.75;34.00;;;;;;;7.33;94.31;100280.75;1789942;80;21065;-69
2021/04/01 04:18:55;;;;;;;47.38;33.23;;;;;;;7.38;94.27;100274.10;1794365;78;21566;-69
2021/04/01 04:21:25;;;;;;;43.20;32.48;;;;;;;7.43;94.29;100274.77;1807678;78;20922;-70
2021/04/01 04:23:54;;;;;;;45.90;33.55;;;;;;;7.51;94.38;100271.88;1822776;78;21192;-72
2021/04/01 04:26:23;;;;;;;46.05;32.35;;;;;;;7.59;94.33;100269.38;1797264;78;20994;-70
2021/04/01 04:28:52;;;;;;;42.73;31.37;;;;;;;7.69;94.36;100268.08;1790104;78;21002;-71
2021/04/01 04:31:21;;;;;;;41.75;32.30;;;;;;;7.82;94.26;100267.13;1797020;78;20997;-72
2021/04/01 04:33:49;;;;;;;48.13;32.98;;;;;;;7.96;94.33;100264.83;1785195;80;21015;-72
2021/04/01 04:36:17;;;;;;;46.88;32.83;;;;;;;8.15;94.45;100264.88;1784556;80;21657;-71
2021/04/01 04:38:48;;;;;;;44.50;32.28;;;;;;;8.34;94.30;100263.22;1793489;79;21722;-70
2021/04/01 04:41:16;;;;;;;41.00;32.03;;;;;;;8.56;94.09;100259.67;1789063;79;21074;-72
2021/04/01 04:43:45;;;;;;;51.65;38.42;;;;;;;8.77;93.86;100259.19;1789188;79;20942;-72
2021/04/01 04:46:14;;;;;;;43.10;32.17;;;;;;;8.99;93.66;100257.28;1785161;80;20926;-74
2021/04/01 04:48:44;;;;;;;41.65;30.68;;;;;;;9.22;93.27;100250.55;1785181;80;21205;-72
2021/04/01 04:51:13;;;;;;;35.85;29.18;;;;;;;9.45;92.55;100252.06;1785146;79;20982;-69
2021/04/01 04:53:41;;;;;;;41.40;30.48;;;;;;;9.69;91.82;100248.72;1785153;79;21355;-71
2021/04/01 04:56:13;;;;;;;41.68;31.52;;;;;;;9.93;91.35;100246.22;1785015;79;21017;-72
2021/04/01 04:59:09;;;;;;;44.27;32.28;;;;;;;10.17;90.55;100239.38;1783612;79;21528;-71
2021/04/01 05:06:54;;;;;;;44.27;32.45;;;;;;;10.95;87.69;100236.13;1786106;78;20991;-71
2021/04/01 05:09:24;;;;;;;48.58;33.42;;;;;;;11.21;86.36;100240.73;1785548;78;21043;-70
2021/04/01 05:11:53;;;;;;;44.50;30.43;;;;;;;11.45;85.31;100227.27;1792948;78;21032;-71
2021/04/01 05:14:25;;;;;;;38.48;30.10;;;;;;;11.66;84.34;100227.33;1788416;78;21250;-70
2021/04/01 05:16:54;;;;;;;39.25;30.32;;;;;;;11.91;83.54;100217.66;1795759;79;20954;-71
2021/04/01 05:19:26;;;;;;;44.03;31.10;;;;;;;12.12;82.38;100216.37;1787884;78;21581;-71
2021/04/01 05:22:05;;;;;;;39.23;29.32;;;;;;;12.36;81.44;100220.61;1796885;78;21615;-71
2021/04/01 05:24:28;;;;;;;40.08;29.55;;;;;;;12.60;80.38;100219.56;1794010;79;21223;-72
2021/04/01 05:29:39;;;;;;;39.45;30.05;;;;;;;13.04;78.22;100218.09;1798168;79;21183;-71
2021/04/01 05:32:04;;;;;;;36.42;29.27;;;;;;;13.22;77.33;100216.10;1795717;78;21615;-71
2021/04/01 05:34:37;;;;;;;44.20;30.82;;;;;;;13.40;76.38;100216.23;1761407;80;21001;-72
2021/04/01 05:37:07;;;;;;;39.73;30.88;;;;;;;13.55;75.64;100213.94;1800093;78;21144;-71
2021/04/01 05:39:38;;;;;;;39.60;30.62;;;;;;;13.71;75.08;100216.84;1790022;78;21741;-70
2021/04/01 05:42:09;;;;;;;34.13;26.20;;;;;;;13.85;74.29;100205.83;1803371;78;21057;-70
2021/04/01 05:44:43;;;;;;;32.70;25.92;;;;;;;14.00;73.29;100207.39;1792045;78;21363;-71
2021/04/01 05:47:19;;;;;;;34.15;26.20;;;;;;;14.12;72.60;100206.20;1802813;78;21216;-71
2021/04/01 05:49:58;;;;;;;32.00;24.90;;;;;;;14.23;72.14;100208.47;1801905;78;21049;-71
2021/04/01 05:52:58;;;;;;;33.40;27.50;;;;;;;14.30;71.06;100203.17;1797109;78;21177;-70
2021/04/01 05:58:29;;;;;;;31.27;26.68;;;;;;;14.25;71.06;100202.66;1796157;78;21569;-72
2021/04/01 06:01:10;;;;;;;32.58;26.27;;;;;;;14.20;70.96;100196.89;1787805;78;21679;-71
2021/04/01 06:03:59;;;;;;;35.50;25.68;;;;;;;14.13;70.90;100188.24;1784673;80;21060;-72
2021/04/01 06:06:40;;;;;;;31.70;24.47;;;;;;;14.07;70.90;100193.42;1789887;79;22311;-73
2021/04/01 06:09:05;;;;;;;35.23;26.10;;;;;;;14.01;71.21;100189.44;1732072;82;20969;-73
2021/04/01 06:11:33;;;;;;;34.43;27.25;;;;;;;14.06;71.34;100189.13;1789447;78;21068;-71
2021/04/01 06:14:12;;;;;;;37.55;26.17;;;;;;;14.12;71.37;100190.02;1764769;80;21093;-71
2021/04/01 06:16:45;;;;;;;32.93;25.23;;;;;;;14.23;70.92;100186.20;1788800;80;21060;-72
2021/04/01 06:19:18;;;;;;;34.00;24.57;;;;;;;14.34;70.64;100183.69;1765329;79;21112;-71
2021/04/01 06:21:49;;;;;;;30.55;24.67;;;;;;;14.53;70.66;100175.87;1797663;78;21091;-71
2021/04/01 06:24:28;;;;;;;32.58;24.43;;;;;;;14.74;70.12;100181.39;1803939;78;20985;-73
2021/04/01 06:27:17;;;;;;;31.80;25.77;;;;;;;14.89;69.41;100178.97;1812256;78;21013;-72
2021/04/01 06:32:44;;;;;;;34.63;24.92;;;;;;;15.15;68.52;100172.70;1815562;78;21414;-71
2021/04/01 06:35:21;;;;;;;35.30;24.67;;;;;;;15.24;67.89;100172.00;1793772;79;21136;-71
2021/04/01 06:41:21;;;;;;;28.15;22.98;;;;;;;15.33;67.28;100177.89;1795100;78;21028;-71
2021/04/01 06:43:48;;;;;;;28.92;23.25;;;;;;;15.37;67.14;100179.81;1759216;80;21042;-71
2021/04/01 06:46:18;;;;;;;29.87;23.73;;;;;;;15.37;66.90;100173.73;1771320;80;22230;-70
2021/04/01 06:51:32;;;;;;;31.33;25.00;;;;;;;15.32;66.87;100172.75;1760058;81;21049;-71
2021/04/01 07:04:33;;;;;;;33.08;24.35;;;;;;;15.17;67.36;100165.55;1716413;82;21095;-72
2021/04/01 07:07:15;;;;;;;27.55;23.32;;;;;;;15.26;67.53;100160.92;1756569;80;21096;-71
2021/04/01 07:12:45;;;;;;;30.72;24.55;;;;;;;15.53;67.23;100158.53;1737633;81;21758;-72
2021/04/01 07:15:26;;;;;;;29.07;24.27;;;;;;;15.80;66.67;100162.20;1742366;80;21049;-71
2021/04/01 07:17:54;;;;;;;32.55;26.82;;;;;;;16.04;66.02;100160.33;1695357;82;21045;-72
2021/04/01 07:47:59;;;;;;;24.80;21.42;;;;;;;18.39;58.44;100131.85;1720089;80;21701;-72
2021/04/01 07:50:37;;;;;;;26.05;21.45;;;;;;;18.50;57.88;100126.45;1741613;82;21025;-72
2021/04/01 07:53:06;;;;;;;26.02;21.57;;;;;;;18.58;57.53;100123.50;1671020;83;21421;-72
2021/04/01 07:56:18;;;;;;;27.37;21.90;;;;;;;18.70;58.02;100119.47;1724199;83;21092;-71
2021/04/01 07:59:01;;;;;;;23.77;20.40;;;;;;;18.91;57.58;100115.73;1726258;82;20907;-71
2021/04/01 08:04:08;;;;;;;25.15;20.32;;;;;;;19.17;56.16;100109.45;1737586;82;21073;-71
2021/04/01 08:06:39;;;;;;;23.65;19.85;;;;;;;19.30;56.09;100110.47;1723266;82;21216;-71
2021/04/01 08:09:12;;;;;;;26.42;19.98;;;;;;;19.39;55.38;100095.59;1748577;81;20971;-71
2021/04/01 08:11:47;;;;;;;27.17;20.57;;;;;;;19.47;54.83;100098.36;1721468;83;20942;-72
2021/04/01 08:14:33;;;;;;;25.57;19.20;;;;;;;19.52;54.98;100094.36;1731784;81;21067;-71
2021/04/01 08:17:07;;;;;;;25.10;19.23;;;;;;;19.62;54.83;100095.64;1732712;81;21620;-71
2021/04/01 08:19:36;;;;;;;22.35;18.80;;;;;;;19.66;53.90;100082.49;1720454;83;22122;-70
2021/04/01 08:22:21;;;;;;;23.67;18.80;;;;;;;19.63;53.66;100078.33;1734352;81;21078;-70
2021/04/01 08:24:54;;;;;;;23.02;17.52;;;;;;;19.58;53.82;100078.44;1739383;82;21208;-72
2021/04/01 08:27:39;;;;;;;21.82;18.35;;;;;;;19.55;53.83;100078.72;1738902;82;21081;-69
2021/04/01 08:35:32;;;;;;;22.58;19.30;;;;;;;19.53;53.23;100068.78;1761051;81;20951;-70
2021/04/01 08:40:41;;;;;;;21.42;17.70;;;;;;;19.39;53.40;100061.27;1732637;79;21562;-70
2021/04/01 08:44:02;;;;;;;24.82;18.00;;;;;;;19.28;53.52;100057.80;1726533;81;21549;-70
2021/04/01 08:47:00;;;;;;;23.47;18.48;;;;;;;19.24;53.88;100059.05;1697806;83;21378;-69
2021/04/01 08:49:53;;;;;;;21.97;17.15;;;;;;;19.24;53.88;100053.77;1707991;82;21029;-67
2021/04/01 08:53:16;;;;;;;19.40;15.98;;;;;;;19.23;54.05;100056.06;1758946;81;21635;-67
2021/04/01 08:55:59;;;;;;;20.80;16.27;;;;;;;19.27;53.86;100056.62;1780272;80;21678;-67
2021/04/01 08:58:42;;;;;;;22.20;16.73;;;;;;;19.27;53.45;100050.84;1791397;80;21686;-68
2021/04/01 09:01:14;;;;;;;22.87;17.20;;;;;;;19.22;53.43;100040.36;1790460;80;22088;-67
2021/04/01 09:03:44;;;;;;;23.77;16.23;;;;;;;19.16;53.11;100039.63;1791139;80;21519;-65
2021/04/01 09:06:14;;;;;;;20.20;15.98;;;;;;;19.10;53.08;100034.91;1763018;80;21045;-67
2021/04/01 09:08:47;;;;;;;20.85;16.70;;;;;;;19.04;52.72;100031.52;1791309;80;21009;-66
2021/04/01 09:11:16;;;;;;;19.80;15.53;;;;;;;18.99;52.92;100026.65;1791459;80;21061;-67
2021/04/01 09:13:51;;;;;;;19.65;16.20;;;;;;;18.99;52.58;100024.84;1791024;80;22510;-68
2021/04/01 09:16:32;;;;;;;19.50;16.37;;;;;;;18.99;52.56;100024.02;1791574;80;21495;-68
2021/04/01 09:19:04;;;;;;;23.45;16.17;;;;;;;18.98;52.40;100015.27;1782942;79;21016;-67
2021/04/01 09:21:37;;;;;;;18.35;14.80;;;;;;;18.97;51.77;100014.08;1790501;79;21044;-67
2021/04/01 09:24:11;;;;;;;18.12;15.03;;;;;;;18.94;52.57;100017.83;1787377;79;21100;-67
2021/04/01 09:26:49;;;;;;;19.12;15.05;;;;;;;18.95;52.23;100018.17;1766435;81;22033;-69
2021/04/01 09:29:19;;;;;;;19.87;15.40;;;;;;;18.96;52.38;100009.78;1778383;78;21048;-67
2021/04/01 09:31:59;;;;;;;21.40;15.53;;;;;;;18.98;52.64;100008.66;1786913;78;21672;-68
2021/04/01 09:34:32;;;;;;;19.90;13.35;;;;;;;19.07;52.36;99996.92;1802184;78;21824;-67
2021/04/01 09:37:19;;;;;;;21.17;14.85;;;;;;;19.14;51.60;99999.34;1787642;79;21017;-67
2021/04/01 09:39:42;;;;;;;19.87;15.05;;;;;;;19.21;50.97;99994.66;1814293;79;22130;-69
2021/04/01 09:42:14;;;;;;;23.47;15.13;;;;;;;19.24;50.66;99997.02;1746309;80;21054;-68
2021/04/01 09:44:53;;;;;;;17.37;15.43;;;;;;;19.22;50.63;99988.40;1758173;81;20963;-66
2021/04/01 09:47:36;;;;;;;24.77;14.87;;;;;;;19.20;50.62;99989.02;1741508;80;21508;-66
2021/04/01 09:50:08;;;;;;;22.93;14.70;;;;;;;19.22;50.44;99983.12;1777814;79;21074;-66
2021/04/01 09:52:40;;;;;;;17.70;13.75;;;;;;;19.26;50.40;99980.55;1765371;81;21190;-67
2021/04/01 09:55:15;;;;;;;17.67;14.40;;;;;;;19.28;50.10;99975.95;1765615;81;21011;-67
2021/04/01 09:57:47;;;;;;;17.92;13.22;;;;;;;19.31;50.18;99972.20;1764879;79;21009;-66
2021/04/01 10:03:31;;;;;;;18.80;13.35;;;;;;;19.40;50.42;99972.66;1771631;80;21225;-66
2021/04/01 10:06:00;;;;;;;20.10;13.53;;;;;;;19.47;49.81;99964.51;1765945;81;22204;-68
2021/04/01 10:08:36;;;;;;;24.98;14.03;;;;;;;19.50;49.71;99966.03;1765995;81;21607;-66
2021/04/01 10:11:21;;;;;;;17.23;13.48;;;;;;;19.48;49.20;99963.53;1766185;81;21061;-66
2021/04/01 10:14:09;;;;;;;16.67;13.30;;;;;;;19.45;49.51;99960.34;1764945;81;21199;-66
2021/04/01 10:16:51;;;;;;;19.15;13.43;;;;;;;19.44;49.38;99952.91;1744782;81;21571;-68
2021/04/01 10:19:24;;;;;;;14.20;12.60;;;;;;;19.41;49.14;99947.09;1766051;81;21363;-68
2021/04/01 10:21:53;;;;;;;17.92;11.90;;;;;;;19.40;49.63;99943.61;1765494;81;21133;-68
2021/04/01 10:24:34;;;;;;;14.30;11.55;;;;;;;19.47;49.53;99942.06;1765242;81;20978;-68
2021/04/01 10:27:10;;;;;;;15.25;12.40;;;;;;;19.56;48.86;99932.47;1765511;81;21010;-68
2021/04/01 10:29:56;;;;;;;18.02;12.63;;;;;;;19.58;48.20;99935.80;1765498;81;20943;-68
2021/04/01 10:32:16;;;;;;;17.40;12.15;;;;;;;19.53;48.36;99932.77;1763291;81;22000;-68
2021/04/01 10:35:16;;;;;;;17.17;12.30;;;;;;;19.43;48.27;99922.20;1766263;80;20949;-69
2021/04/01 10:37:56;;;;;;;18.25;11.48;;;;;;;19.31;48.05;99920.71;1766085;81;21373;-68
2021/04/01 10:40:49;;;;;;;14.90;11.75;;;;;;;19.19;48.13;99912.65;1766081;81;21487;-67
2021/04/01 10:43:19;;;;;;;19.23;12.53;;;;;;;19.06;48.55;99910.80;1768266;80;21019;-67
2021/04/01 10:45:53;;;;;;;16.32;11.68;;;;;;;19.01;48.86;99909.91;1771179;80;21107;-69
2021/04/01 10:48:43;;;;;;;16.35;11.22;;;;;;;19.00;48.86;99901.64;1771148;81;21063;-67
2021/04/01 10:51:11;;;;;;;16.15;12.15;;;;;;;19.03;48.53;99899.21;1771009;80;21071;-67
2021/04/01 10:53:43;;;;;;;18.07;11.15;;;;;;;19.03;48.62;99901.36;1770838;81;21004;-68
2021/04/01 10:56:13;;;;;;;17.55;11.25;;;;;;;19.02;48.36;99892.27;1771196;80;21510;-68
2021/04/01 10:58:53;;;;;;;15.45;11.73;;;;;;;19.00;48.31;99891.09;1771095;81;22352;-67
2021/04/01 11:01:37;;;;;;;15.05;10.65;;;;;;;18.98;47.93;99882.00;1771160;81;20943;-68
2021/04/01 11:04:05;;;;;;;20.40;11.15;;;;;;;18.96;48.29;99869.92;1767546;79;21010;-68
2021/04/01 11:06:37;;;;;;;15.75;10.15;;;;;;;18.95;47.60;99874.37;1785066;79;21009;-69
2021/04/01 11:09:10;;;;;;;13.78;9.85;;;;;;;18.91;47.90;99866.39;1773641;79;20974;-69
2021/04/01 11:14:10;;;;;;;12.78;9.35;;;;;;;18.86;47.69;99865.16;1752921;80;21049;-69
2021/04/01 11:16:39;;;;;;;11.25;8.65;;;;;;;18.82;47.87;99859.81;1768952;80;21083;-69
2021/04/01 11:19:08;;;;;;;14.45;8.33;;;;;;;18.80;47.38;99855.16;1768270;80;21069;-69
2021/04/01 11:21:36;;;;;;;10.48;7.00;;;;;;;18.79;46.37;99849.58;1727814;80;20937;-70
2021/04/01 11:24:06;;;;;;;9.48;6.85;;;;;;;18.78;44.62;99846.59;1793290;79;22415;-68
2021/04/01 11:26:35;;;;;;;9.73;6.80;;;;;;;18.77;44.10;99840.48;1799189;79;20970;-71
2021/04/01 11:29:12;;;;;;;10.25;7.28;;;;;;;18.76;43.82;99844.58;1811538;79;21092;-70
2021/04/01 11:31:42;;;;;;;10.18;6.70;;;;;;;18.76;43.38;99829.59;1815075;79;20989;-70
2021/04/01 11:34:10;;;;;;;9.78;6.45;;;;;;;18.76;43.45;99833.55;1770932;80;21025;-70
2021/04/01 11:36:48;;;;;;;10.58;6.85;;;;;;;18.76;43.44;99824.31;1807183;79;21061;-70
2021/04/01 11:39:26;;;;;;;13.00;7.42;;;;;;;18.78;43.61;99820.22;1764984;80;21038;-70
2021/04/01 11:41:47;;;;;;;8.03;6.53;;;;;;;18.79;43.19;99821.39;1773383;80;21023;-70
2021/04/01 11:44:18;;;;;;;16.23;7.70;;;;;;;18.78;43.38;99815.77;1772303;80;20934;-71
2021/04/01 11:46:48;;;;;;;8.63;6.55;;;;;;;18.76;43.98;99815.08;1771390;80;20923;-69
2021/04/01 11:49:16;;;;;;;13.15;6.85;;;;;;;18.75;44.06;99812.09;1734419;80;21540;-69
2021/04/01 11:51:45;;;;;;;15.32;6.25;;;;;;;18.74;43.38;99803.84;1776434;79;21104;-69
2021/04/01 11:54:24;;;;;;;18.12;6.47;;;;;;;18.73;43.35;99804.81;1741548;81;21370;-68
2021/04/01 11:56:59;;;;;;;13.45;5.58;;;;;;;18.75;40.94;99807.31;1746732;82;21065;-71
2021/04/01 11:59:36;;;;;;;10.25;6.22;;;;;;;18.74;39.97;99805.64;1763567;81;21058;-69
2021/04/01 12:02:07;;;;;;;10.63;6.12;;;;;;;18.72;40.60;99799.69;1744094;82;21794;-69
2021/04/01 12:04:37;;;;;;;9.35;6.00;;;;;;;18.73;41.61;99790.80;1773743;80;21714;-69
2021/04/01 12:07:08;;;;;;;10.38;6.10;;;;;;;18.73;40.37;99788.98;1766906;80;21067;-70
2021/04/01 12:09:37;;;;;;;14.75;5.78;;;;;;;18.72;40.89;99785.17;1751244;80;20997;-70
2021/04/01 12:12:08;;;;;;;9.35;4.97;;;;;;;18.73;40.78;99774.97;1774393;80;21615;-70
2021/04/01 12:14:38;;;;;;;16.37;5.53;;;;;;;18.71;39.97;99768.52;1747572;80;21377;-69
2021/04/01 12:17:07;;;;;;;10.85;4.78;;;;;;;18.70;39.55;99766.86;1770948;79;21674;-70
2021/04/01 12:19:38;;;;;;;8.80;4.92;;;;;;;18.71;40.43;99762.41;1766486;80;21201;-70
2021/04/01 12:22:09;;;;;;;8.43;5.75;;;;;;;18.73;40.06;99763.09;1766097;81;21110;-70
2021/04/01 12:24:39;;;;;;;10.90;6.83;;;;;;;18.74;40.55;99761.64;1715657;83;20993;-69
2021/04/01 12:27:08;;;;;;;9.45;6.40;;;;;;;18.74;41.26;99757.68;1751749;79;21465;-71
2021/04/01 12:29:47;;;;;;;10.13;6.47;;;;;;;18.73;41.36;99752.06;1770672;81;20998;-69
2021/04/01 12:32:34;;;;;;;12.37;5.97;;;;;;;18.71;41.01;99752.69;1728752;81;21857;-70
2021/04/01 12:35:13;;;;;;;13.97;6.10;;;;;;;18.69;40.89;99746.73;1807072;79;20922;-70
2021/04/01 12:37:43;;;;;;;14.05;5.50;;;;;;;18.68;40.59;99742.92;1811332;79;21823;-69
2021/04/01 12:40:21;;;;;;;8.40;5.25;;;;;;;18.67;41.14;99735.49;1811065;79;39867;-70
2021/04/01 12:42:52;;;;;;;12.78;5.55;;;;;;;18.68;40.81;99726.60;1810809;79;20965;-71
2021/04/01 12:45:32;;;;;;;12.85;6.50;;;;;;;18.67;40.83;99728.90;1717006;83;20958;-69
2021/04/01 12:48:13;;;;;;;8.95;5.75;;;;;;;18.69;40.83;99722.99;1753680;80;21538;-70
2021/04/01 12:50:46;;;;;;;8.13;6.75;;;;;;;18.71;40.76;99729.44;1752025;80;21034;-70
2021/04/01 12:53:22;;;;;;;11.90;6.22;;;;;;;18.71;40.85;99724.17;1759643;80;21365;-71
2021/04/01 12:55:56;;;;;;;8.98;6.03;;;;;;;18.70;40.25;99718.55;1759905;80;21092;-71
2021/04/01 13:01:24;;;;;;;11.78;6.10;;;;;;;18.64;40.18;99708.92;1679549;82;20962;-70
2021/04/01 13:03:52;;;;;;;7.15;5.67;;;;;;;18.64;39.71;99702.81;1743112;82;21207;-69
2021/04/01 13:06:41;;;;;;;10.78;5.72;;;;;;;18.62;39.91;99702.95;1717546;82;21150;-70
2021/04/01 13:11:47;;;;;;;11.40;6.87;;;;;;;18.60;39.63;99686.94;1740125;82;21033;-72
2021/04/01 13:14:16;;;;;;;20.95;5.80;;;;;;;18.59;39.65;99686.56;1746469;82;21060;-71
2021/04/01 13:16:46;;;;;;;9.85;5.30;;;;;;;18.58;39.72;99679.63;1746058;82;21025;-71
2021/04/01 13:19:15;;;;;;;9.60;5.75;;;;;;;18.56;38.68;99677.13;1746902;81;22184;-71